createdAt,value
2024-04-09T00:00:47.267Z,10.27
2024-04-09T00:03:39.246Z,10.26
2024-04-09T00:06:15.859Z,10.23
2024-04-09T00:08:45.905Z,10.20
2024-04-09T00:11:23.204Z,10.17
2024-04-09T00:13:56.362Z,10.13
2024-04-09T00:16:29.498Z,10.10
2024-04-09T00:18:59.962Z,10.06
2024-04-09T00:21:32.128Z,10.01
2024-04-09T00:24:02.174Z,9.96
2024-04-09T00:26:33.447Z,9.92
2024-04-09T00:29:02.637Z,9.88
2024-04-09T00:31:30.911Z,9.82
2024-04-09T00:33:59.269Z,9.77
2024-04-09T00:36:29.982Z,9.72
2024-04-09T00:39:01.668Z,9.67
2024-04-09T00:41:32.050Z,9.62
2024-04-09T00:44:00.252Z,9.57
2024-04-09T00:46:29.415Z,9.52
2024-04-09T00:48:58.660Z,9.48
2024-04-09T00:51:33.659Z,9.45
2024-04-09T00:54:04.736Z,9.41
2024-04-09T00:56:34.894Z,9.37
2024-04-09T00:59:03.158Z,9.34
2024-04-09T01:01:32.157Z,9.31
2024-04-09T01:04:00.511Z,9.28
2024-04-09T01:06:28.821Z,9.23
2024-04-09T01:08:57.034Z,9.19
2024-04-09T01:11:25.069Z,9.15
2024-04-09T01:13:54.462Z,9.12
2024-04-09T01:16:22.880Z,9.08
2024-04-09T01:18:53.890Z,9.05
2024-04-09T01:21:26.232Z,9.02
2024-04-09T01:23:54.634Z,9.01
2024-04-09T01:26:24.443Z,8.98
2024-04-09T01:28:52.712Z,8.95
2024-04-09T01:31:22.962Z,8.91
2024-04-09T01:33:53.535Z,8.88
2024-04-09T01:36:21.895Z,8.85
2024-04-09T01:38:50.575Z,8.81
2024-04-09T01:41:19.465Z,8.78
2024-04-09T01:43:49.861Z,8.74
2024-04-09T01:46:17.748Z,8.70
2024-04-09T01:48:46.051Z,8.67
2024-04-09T01:51:14.626Z,8.64
2024-04-09T01:53:47.561Z,8.59
2024-04-09T01:56:19.788Z,8.55
2024-04-09T01:58:47.972Z,8.51
2024-04-09T02:01:16.361Z,8.48
2024-04-09T02:03:45.055Z,8.46
2024-04-09T02:06:18.047Z,8.43
2024-04-09T02:08:46.580Z,8.40
2024-04-09T02:11:14.649Z,8.38
2024-04-09T02:13:43.680Z,8.36
2024-04-09T02:16:13.100Z,8.34
2024-04-09T02:18:41.782Z,8.32
2024-04-09T02:21:11.275Z,8.29
2024-04-09T02:23:44.737Z,8.25
2024-04-09T02:26:12.960Z,8.23
2024-04-09T02:28:41.023Z,8.21
2024-04-09T02:31:09.093Z,8.18
2024-04-09T02:33:37.736Z,8.15
2024-04-09T02:36:10.216Z,8.11
2024-04-09T02:38:38.777Z,8.08
2024-04-09T02:41:08.825Z,8.05
2024-04-09T02:43:37.085Z,8.01
2024-04-09T02:46:05.456Z,7.97
2024-04-09T02:48:34.089Z,7.93
2024-04-09T02:51:07.393Z,7.89
2024-04-09T02:53:36.261Z,7.85
2024-04-09T02:56:05.846Z,7.81
2024-04-09T02:58:35.918Z,7.78
2024-04-09T03:01:12.149Z,7.76
2024-04-09T03:03:40.973Z,7.74
2024-04-09T03:06:14.155Z,7.74
2024-04-09T03:08:43.425Z,7.72
2024-04-09T03:11:15.358Z,7.70
2024-04-09T03:13:45.895Z,7.68
2024-04-09T03:16:16.561Z,7.66
2024-04-09T03:18:45.754Z,7.62
2024-04-09T03:21:15.067Z,7.60
2024-04-09T03:23:43.754Z,7.57
2024-04-09T03:26:15.392Z,7.56
2024-04-09T03:28:43.539Z,7.55
2024-04-09T03:31:11.726Z,7.53
2024-04-09T03:33:40.316Z,7.53
2024-04-09T03:36:10.334Z,7.52
2024-04-09T03:38:38.544Z,7.51
2024-04-09T03:41:11.093Z,7.50
2024-04-09T03:43:40.824Z,7.51
2024-04-09T03:46:14.411Z,7.51
2024-04-09T03:48:46.842Z,7.51
2024-04-09T03:51:18.533Z,7.51
2024-04-09T03:53:48.987Z,7.53
2024-04-09T03:56:18.861Z,7.53
2024-04-09T03:58:53.114Z,7.53
2024-04-09T04:01:21.406Z,7.54
2024-04-09T04:03:50.374Z,7.55
2024-04-09T04:06:18.796Z,7.57
2024-04-09T04:08:47.151Z,7.54
2024-04-09T04:11:15.818Z,7.54
2024-04-09T04:13:44.299Z,7.53
2024-04-09T04:16:17.336Z,7.53
2024-04-09T04:18:49.411Z,7.53
2024-04-09T04:21:24.185Z,7.52
2024-04-09T04:23:56.704Z,7.55
2024-04-09T04:26:26.679Z,7.58
2024-04-09T04:28:56.276Z,7.61
2024-04-09T04:31:27.188Z,7.65
2024-04-09T04:34:00.310Z,7.69
2024-04-09T04:36:28.451Z,7.72
2024-04-09T04:38:56.722Z,7.74
2024-04-09T04:41:25.467Z,7.77
2024-04-09T04:44:19.135Z,7.80
2024-04-09T04:46:47.649Z,7.86
2024-04-09T04:49:19.834Z,7.92
2024-04-09T04:51:49.053Z,7.98
2024-04-09T04:54:19.239Z,8.04
2024-04-09T04:56:47.609Z,8.10
2024-04-09T04:59:25.276Z,8.18
2024-04-09T05:01:57.740Z,8.25
2024-04-09T05:04:27.215Z,8.32
2024-04-09T05:06:57.298Z,8.38
2024-04-09T05:09:26.974Z,8.46
2024-04-09T05:11:55.973Z,8.53
2024-04-09T05:14:25.528Z,8.62
2024-04-09T05:16:54.280Z,8.70
2024-04-09T05:19:25.413Z,8.76
2024-04-09T05:21:56.133Z,8.83
2024-04-09T05:24:24.661Z,8.90
2024-04-09T05:26:56.769Z,8.98
2024-04-09T05:29:26.003Z,9.05
2024-04-09T05:32:01.136Z,9.11
2024-04-09T05:34:29.577Z,9.21
2024-04-09T05:36:57.764Z,9.29
2024-04-09T05:39:26.108Z,9.37
2024-04-09T05:41:59.213Z,9.43
2024-04-09T05:44:27.426Z,9.50
2024-04-09T05:46:55.767Z,9.57
2024-04-09T05:49:24.556Z,9.64
2024-04-09T05:51:52.930Z,9.71
2024-04-09T05:54:23.400Z,9.79
2024-04-09T05:56:53.202Z,9.89
2024-04-09T05:59:24.370Z,10.03
2024-04-09T06:01:54.147Z,10.15
2024-04-09T06:04:25.452Z,10.27
2024-04-09T06:06:54.035Z,10.38
2024-04-09T06:09:22.641Z,10.49
2024-04-09T06:11:57.488Z,10.62
2024-04-09T06:14:27.428Z,10.74
2024-04-09T06:16:56.167Z,10.84
2024-04-09T06:19:26.012Z,11.00
2024-04-09T06:21:54.830Z,11.14
2024-04-09T06:24:23.881Z,11.29
2024-04-09T06:26:52.268Z,11.44
2024-04-09T06:29:23.456Z,11.52
2024-04-09T06:31:52.827Z,11.69
2024-04-09T06:34:21.007Z,11.84
2024-04-09T06:36:49.491Z,12.00
2024-04-09T06:39:17.758Z,12.15
2024-04-09T06:41:45.934Z,12.31
2024-04-09T06:44:15.969Z,12.46
2024-04-09T06:46:46.837Z,12.61
2024-04-09T06:49:14.996Z,12.76
2024-04-09T06:51:43.391Z,12.96
2024-04-09T06:54:15.711Z,13.15
2024-04-09T06:56:44.190Z,13.27
2024-04-09T06:59:14.599Z,13.39
2024-04-09T07:01:42.942Z,13.52
2024-04-09T07:04:13.425Z,13.66
2024-04-09T07:06:42.682Z,13.81
2024-04-09T07:09:19.118Z,13.95
2024-04-09T07:11:48.287Z,14.10
2024-04-09T07:14:18.572Z,14.28
2024-04-09T07:16:48.401Z,14.42
2024-04-09T07:19:20.006Z,14.51
2024-04-09T07:21:48.826Z,14.67
2024-04-09T07:24:17.745Z,14.86
2024-04-09T07:26:47.862Z,15.02
2024-04-09T07:29:16.391Z,15.16
2024-04-09T07:31:44.710Z,15.24
2024-04-09T07:34:12.881Z,15.36
2024-04-09T07:36:45.926Z,15.40
2024-04-09T07:39:19.263Z,15.35
2024-04-09T07:41:47.435Z,15.56
2024-04-09T07:44:19.178Z,15.77
2024-04-09T07:46:49.789Z,15.86
2024-04-09T07:49:24.714Z,16.04
2024-04-09T07:51:53.136Z,16.19
2024-04-09T07:54:27.952Z,16.34
2024-04-09T07:57:02.943Z,16.41
2024-04-09T07:59:31.639Z,16.64
2024-04-09T08:02:01.209Z,16.76
2024-04-09T08:04:30.086Z,16.93
2024-04-09T08:07:00.726Z,16.89
2024-04-09T08:09:30.638Z,17.01
2024-04-09T08:12:00.090Z,16.96
2024-04-09T08:14:29.039Z,17.13
2024-04-09T08:16:59.920Z,17.34
2024-04-09T08:19:32.523Z,17.43
2024-04-09T08:22:01.698Z,17.47
2024-04-09T08:24:33.570Z,17.47
2024-04-09T08:27:02.354Z,17.48
2024-04-09T08:29:33.105Z,17.76
2024-04-09T08:32:01.626Z,18.02
2024-04-09T08:34:30.381Z,18.11
2024-04-09T08:36:59.019Z,18.25
2024-04-09T08:39:28.207Z,18.38
2024-04-09T08:41:58.425Z,18.55
2024-04-09T08:44:32.619Z,18.71
2024-04-09T08:47:02.006Z,18.86
2024-04-09T08:49:31.196Z,19.08
2024-04-09T08:52:00.682Z,19.22
2024-04-09T08:54:30.988Z,19.35
2024-04-09T08:57:00.919Z,19.48
2024-04-09T08:59:32.645Z,19.62
2024-04-09T09:02:18.165Z,19.79
2024-04-09T09:04:50.770Z,19.94
2024-04-09T09:07:26.357Z,20.00
2024-04-09T09:10:02.689Z,20.15
2024-04-09T09:12:32.597Z,20.37
2024-04-09T09:15:06.352Z,20.51
2024-04-09T09:17:47.243Z,20.72
2024-04-09T09:20:17.633Z,20.80
2024-04-09T09:22:47.972Z,20.84
2024-04-09T09:25:32.850Z,20.90
2024-04-09T09:28:10.357Z,20.98
2024-04-09T09:30:44.880Z,21.19
2024-04-09T09:33:35.110Z,21.38
2024-04-09T09:36:10.652Z,21.65
2024-04-09T09:38:46.774Z,21.88
2024-04-09T09:41:36.807Z,22.16
2024-04-09T09:44:13.732Z,22.48
2024-04-09T09:46:46.829Z,22.41
2024-04-09T09:49:20.297Z,22.68
2024-04-09T09:51:50.983Z,23.07
2024-04-09T09:54:19.895Z,23.36
2024-04-09T09:56:54.220Z,23.55
2024-04-09T09:59:25.968Z,23.70
2024-04-09T10:01:57.709Z,24.07
2024-04-09T10:04:28.878Z,24.23
2024-04-09T10:07:15.990Z,24.19
2024-04-09T10:09:51.370Z,24.33
2024-04-09T10:12:24.952Z,24.46
2024-04-09T10:15:18.943Z,24.62
2024-04-09T10:17:54.233Z,24.57
2024-04-09T10:20:31.843Z,24.70
2024-04-09T10:23:03.757Z,25.25
2024-04-09T10:25:46.528Z,25.44
2024-04-09T10:28:34.300Z,25.54
2024-04-09T10:31:05.265Z,25.59
2024-04-09T10:33:36.461Z,25.78
2024-04-09T10:36:32.623Z,26.05
2024-04-09T10:39:13.695Z,26.03
2024-04-09T10:41:41.995Z,26.32
2024-04-09T10:44:13.410Z,26.82
2024-04-09T10:46:42.954Z,26.98
2024-04-09T10:49:11.986Z,26.95
2024-04-09T10:51:40.866Z,26.96
2024-04-09T10:54:15.498Z,26.99
2024-04-09T10:56:43.930Z,26.80
2024-04-09T10:59:23.113Z,27.07
2024-04-09T11:01:52.813Z,27.10
2024-04-09T11:04:27.668Z,27.28
2024-04-09T11:06:56.800Z,27.19
2024-04-09T11:09:28.569Z,27.50
2024-04-09T11:11:58.103Z,27.69
2024-04-09T11:14:27.513Z,27.47
2024-04-09T11:16:59.159Z,27.72
2024-04-09T11:19:30.839Z,27.98
2024-04-09T11:22:02.247Z,28.00
2024-04-09T11:24:31.865Z,28.00
2024-04-09T11:27:01.274Z,28.54
2024-04-09T11:29:33.840Z,28.84
2024-04-09T11:32:10.657Z,29.65
2024-04-09T11:34:46.799Z,29.53
2024-04-09T11:37:22.592Z,29.33
2024-04-09T11:39:55.755Z,29.72
2024-04-09T11:42:28.671Z,29.97
2024-04-09T11:45:04.119Z,30.44
2024-04-09T11:47:45.740Z,30.43
2024-04-09T11:50:43.645Z,30.84
2024-04-09T11:53:36.080Z,30.96
2024-04-09T11:56:15.442Z,30.82
2024-04-09T11:58:51.742Z,30.67
2024-04-09T12:01:20.393Z,30.84
2024-04-09T12:03:55.535Z,31.08
2024-04-09T12:06:31.815Z,30.94
2024-04-09T12:09:17.986Z,30.86
2024-04-09T12:11:46.462Z,31.00
2024-04-09T12:14:15.188Z,31.56
2024-04-09T12:16:46.006Z,31.56
2024-04-09T12:19:14.645Z,30.97
2024-04-09T12:21:44.906Z,30.68
2024-04-09T12:24:13.304Z,30.73
2024-04-09T12:26:43.374Z,31.50
2024-04-09T12:29:12.044Z,31.74
2024-04-09T12:31:44.536Z,31.41
2024-04-09T12:34:12.909Z,31.13
2024-04-09T12:36:42.486Z,31.59
2024-04-09T12:39:13.083Z,31.41
2024-04-09T12:41:49.024Z,31.72
2024-04-09T12:44:19.917Z,32.50
2024-04-09T12:46:57.398Z,32.64
2024-04-09T12:49:37.780Z,33.36
2024-04-09T12:52:29.715Z,33.42
2024-04-09T12:54:59.032Z,32.88
2024-04-09T12:57:34.873Z,32.95
2024-04-09T13:00:31.965Z,33.48
2024-04-09T13:03:02.835Z,32.89
2024-04-09T13:05:34.656Z,32.85
2024-04-09T13:08:08.921Z,33.27
2024-04-09T13:10:37.645Z,32.76
2024-04-09T13:13:11.852Z,33.78
2024-04-09T13:18:14.674Z,34.82
2024-04-09T13:20:45.228Z,35.52
2024-04-09T13:23:14.744Z,34.77
2024-04-09T13:25:47.572Z,35.23
2024-04-09T13:28:16.212Z,35.11
2024-04-09T13:30:44.419Z,34.00
2024-04-09T13:33:16.764Z,33.83
2024-04-09T13:35:46.052Z,33.44
2024-04-09T13:38:15.531Z,34.81
2024-04-09T13:40:44.564Z,35.00
2024-04-09T13:43:15.580Z,34.69
2024-04-09T13:45:44.945Z,34.15
2024-04-09T13:48:25.189Z,34.41
2024-04-09T13:50:58.373Z,34.26
2024-04-09T13:53:27.082Z,34.26
2024-04-09T13:55:55.349Z,34.98
2024-04-09T13:58:24.069Z,35.12
2024-04-09T14:01:02.842Z,34.44
2024-04-09T14:03:32.493Z,33.81
2024-04-09T14:06:01.380Z,33.85
2024-04-09T14:08:31.562Z,33.92
2024-04-09T14:11:03.086Z,34.42
2024-04-09T14:13:45.911Z,34.30
2024-04-09T14:16:20.841Z,34.72
2024-04-09T14:18:51.897Z,35.10
2024-04-09T14:21:21.572Z,35.30
2024-04-09T14:23:49.860Z,34.71
2024-04-09T14:26:21.612Z,34.35
2024-04-09T14:28:52.912Z,35.10
2024-04-09T14:31:21.516Z,35.18
2024-04-09T14:33:54.390Z,35.15
2024-04-09T14:36:24.481Z,35.37
2024-04-09T14:38:53.361Z,35.22
2024-04-09T14:41:25.140Z,35.34
2024-04-09T14:43:55.866Z,35.65
2024-04-09T14:46:24.971Z,35.97
2024-04-09T14:48:56.543Z,34.82
2024-04-09T14:51:25.231Z,34.82
2024-04-09T14:53:53.521Z,34.83
2024-04-09T14:56:22.101Z,35.08
2024-04-09T14:58:54.200Z,35.28
2024-04-09T15:01:25.926Z,35.15
2024-04-09T15:03:56.187Z,35.51
2024-04-09T15:06:27.324Z,35.55
2024-04-09T15:08:56.925Z,35.85
2024-04-09T15:11:28.032Z,36.21
2024-04-09T15:13:56.335Z,35.96
2024-04-09T15:16:25.021Z,36.00
2024-04-09T15:18:53.578Z,35.87
2024-04-09T15:21:22.006Z,35.41
2024-04-09T15:23:50.486Z,35.55
2024-04-09T15:26:19.050Z,35.35
2024-04-09T15:28:48.166Z,35.31
2024-04-09T15:31:16.617Z,35.49
2024-04-09T15:33:50.463Z,35.27
2024-04-09T15:36:19.422Z,34.99
2024-04-09T15:38:50.389Z,35.26
2024-04-09T15:41:19.786Z,35.43
2024-04-09T15:43:50.532Z,35.03
2024-04-09T15:46:20.259Z,34.70
2024-04-09T15:48:48.579Z,34.82
2024-04-09T15:51:18.751Z,34.93
2024-04-09T15:53:48.632Z,34.46
2024-04-09T15:56:17.938Z,33.81
2024-04-09T15:58:46.905Z,33.18
2024-04-09T16:01:15.296Z,33.08
2024-04-09T16:03:44.121Z,32.65
2024-04-09T16:06:12.623Z,32.43
2024-04-09T16:08:41.081Z,32.52
2024-04-09T16:11:10.691Z,32.09
2024-04-09T16:13:42.462Z,31.83
2024-04-09T16:16:16.292Z,31.62
2024-04-09T16:18:47.767Z,31.08
2024-04-09T16:21:18.391Z,30.64
2024-04-09T16:23:47.496Z,30.13
2024-04-09T16:26:15.760Z,29.52
2024-04-09T16:28:48.102Z,29.01
2024-04-09T16:31:16.283Z,28.61
2024-04-09T16:33:44.438Z,28.12
2024-04-09T16:36:16.185Z,27.72
2024-04-09T16:38:44.718Z,27.32
2024-04-09T16:41:14.574Z,27.05
2024-04-09T16:43:43.456Z,26.82
2024-04-09T16:46:12.234Z,26.54
2024-04-09T16:48:40.566Z,26.27
2024-04-09T16:51:09.543Z,26.03
2024-04-09T16:53:39.235Z,25.75
2024-04-09T16:56:07.664Z,25.51
2024-04-09T16:58:35.918Z,25.31
2024-04-09T17:01:08.097Z,25.06
2024-04-09T17:03:38.430Z,24.78
2024-04-09T17:06:12.328Z,24.52
2024-04-09T17:08:43.042Z,24.33
2024-04-09T17:11:14.914Z,24.10
2024-04-09T17:13:47.780Z,23.87
2024-04-09T17:16:16.416Z,23.65
2024-04-09T17:18:45.312Z,23.42
2024-04-09T17:21:15.105Z,23.24
2024-04-09T17:23:44.356Z,23.05
2024-04-09T17:26:19.024Z,22.87
2024-04-09T17:28:48.498Z,22.68
2024-04-09T17:31:17.223Z,22.51
2024-04-09T17:33:51.770Z,22.33
2024-04-09T17:36:20.459Z,22.11
2024-04-09T17:38:48.950Z,21.89
2024-04-09T17:41:18.359Z,21.71
2024-04-09T17:43:48.097Z,21.55
2024-04-09T17:46:16.196Z,21.39
2024-04-09T17:48:49.501Z,21.25
2024-04-09T17:51:18.299Z,21.13
2024-04-09T17:53:46.769Z,21.01
2024-04-09T17:56:18.807Z,20.87
2024-04-09T17:58:47.154Z,20.75
2024-04-09T18:01:22.679Z,20.59
2024-04-09T18:03:56.339Z,20.42
2024-04-09T18:06:28.044Z,20.27
2024-04-09T18:08:57.423Z,20.11
2024-04-09T18:11:26.237Z,19.95
2024-04-09T18:13:54.455Z,19.80
2024-04-09T18:16:25.131Z,19.63
2024-04-09T18:18:54.854Z,19.45
2024-04-09T18:21:29.674Z,19.30
2024-04-09T18:23:58.693Z,19.16
2024-04-09T18:26:27.660Z,19.04
2024-04-09T18:28:56.009Z,18.91
2024-04-09T18:31:25.612Z,18.78
2024-04-09T18:33:53.709Z,18.65
2024-04-09T18:36:23.207Z,18.51
2024-04-09T18:38:51.308Z,18.36
2024-04-09T18:41:20.161Z,18.22
2024-04-09T18:46:21.989Z,17.93
2024-04-09T18:48:53.624Z,17.79
2024-04-09T18:51:21.877Z,17.64
2024-04-09T18:53:50.138Z,17.53
2024-04-09T18:56:18.462Z,17.43
2024-04-09T18:58:47.198Z,17.36
2024-04-09T19:01:15.323Z,17.28
2024-04-09T19:03:43.712Z,17.20
2024-04-09T19:06:13.377Z,17.11
2024-04-09T19:08:41.843Z,17.02
2024-04-09T19:11:10.750Z,16.94
2024-04-09T19:13:40.292Z,16.85
2024-04-09T19:16:10.206Z,16.77
2024-04-09T19:18:39.979Z,16.68
2024-04-09T19:21:09.599Z,16.58
2024-04-09T19:23:38.188Z,16.52
2024-04-09T19:26:07.430Z,16.45
2024-04-09T19:28:38.506Z,16.38
2024-04-09T19:31:06.592Z,16.29
2024-04-09T19:33:36.298Z,16.22
2024-04-09T19:36:06.302Z,16.14
2024-04-09T19:38:35.002Z,16.08
2024-04-09T19:41:03.523Z,16.03
2024-04-09T19:43:38.804Z,15.97
2024-04-09T19:46:12.872Z,15.90
2024-04-09T19:48:41.000Z,15.80
2024-04-09T19:51:09.301Z,15.73
2024-04-09T19:53:49.757Z,15.68
2024-04-09T19:56:23.048Z,15.59
2024-04-09T19:58:51.475Z,15.51
2024-04-09T20:01:20.476Z,15.43
2024-04-09T20:03:49.192Z,15.39
2024-04-09T20:06:17.564Z,15.32
2024-04-09T20:08:45.739Z,15.26
2024-04-09T20:11:14.255Z,15.17
2024-04-09T20:13:43.395Z,15.05
2024-04-09T20:16:12.548Z,14.98
2024-04-09T20:18:40.951Z,14.93
2024-04-09T20:21:09.378Z,14.85
2024-04-09T20:23:38.560Z,14.78
2024-04-09T20:26:07.881Z,14.70
2024-04-09T20:28:36.941Z,14.64
2024-04-09T20:31:10.235Z,14.57
2024-04-09T20:33:38.953Z,14.53
2024-04-09T20:36:11.129Z,14.47
2024-04-09T20:38:39.424Z,14.42
2024-04-09T20:41:10.108Z,14.38
2024-04-09T20:43:38.267Z,14.35
2024-04-09T20:46:08.787Z,14.31
2024-04-09T20:48:37.731Z,14.27
2024-04-09T20:51:07.090Z,14.24
2024-04-09T20:53:37.465Z,14.21
2024-04-09T20:56:06.578Z,14.17
2024-04-09T20:58:35.423Z,14.10
2024-04-09T21:01:04.859Z,14.05
2024-04-09T21:03:33.394Z,14.00
2024-04-09T21:06:03.451Z,13.95
2024-04-09T21:08:31.610Z,13.91
2024-04-09T21:10:59.756Z,13.86
2024-04-09T21:13:28.251Z,13.80
2024-04-09T21:15:56.803Z,13.74
2024-04-09T21:18:26.898Z,13.68
2024-04-09T21:20:56.288Z,13.62
2024-04-09T21:23:24.547Z,13.57
2024-04-09T21:25:52.735Z,13.50
2024-04-09T21:28:20.927Z,13.45
2024-04-09T21:30:48.931Z,13.40
2024-04-09T21:33:17.123Z,13.36
2024-04-09T21:35:45.682Z,13.31
2024-04-09T21:38:15.136Z,13.26
2024-04-09T21:40:45.459Z,13.21
2024-04-09T21:43:14.490Z,13.16
2024-04-09T21:45:42.561Z,13.11
2024-04-09T21:48:10.879Z,13.06
2024-04-09T21:50:40.141Z,13.04
2024-04-09T21:53:08.488Z,13.01
2024-04-09T21:55:36.623Z,12.97
2024-04-09T21:58:05.661Z,12.92
2024-04-09T22:00:35.756Z,12.89
2024-04-09T22:03:05.248Z,12.85
2024-04-09T22:05:34.146Z,12.80
2024-04-09T22:08:02.821Z,12.77
2024-04-09T22:10:31.261Z,12.75
2024-04-09T22:13:00.396Z,12.73
2024-04-09T22:15:29.272Z,12.71
2024-04-09T22:18:00.055Z,12.69
2024-04-09T22:20:41.170Z,12.66
2024-04-09T22:23:14.958Z,12.64
2024-04-09T22:25:43.809Z,12.61
2024-04-09T22:28:12.232Z,12.59
2024-04-09T22:30:40.630Z,12.57
2024-04-09T22:33:09.525Z,12.54
2024-04-09T22:35:38.129Z,12.52
2024-04-09T22:38:06.789Z,12.48
2024-04-09T22:40:38.113Z,12.45
2024-04-09T22:43:10.949Z,12.43
2024-04-09T22:45:39.681Z,12.39
2024-04-09T22:48:09.315Z,12.36
2024-04-09T22:50:38.067Z,12.32
2024-04-09T22:53:08.389Z,12.29
2024-04-09T22:55:38.118Z,12.26
2024-04-09T22:58:06.947Z,12.24
2024-04-09T23:00:35.274Z,12.20
2024-04-09T23:03:07.268Z,12.17
2024-04-09T23:05:35.497Z,12.12
2024-04-09T23:08:07.921Z,12.08
2024-04-09T23:10:36.191Z,12.04
2024-04-09T23:13:04.564Z,12.00
2024-04-09T23:15:32.687Z,11.96
2024-04-09T23:18:01.166Z,11.91
2024-04-09T23:20:29.686Z,11.86
2024-04-09T23:22:58.202Z,11.81
2024-04-09T23:25:26.725Z,11.76
2024-04-09T23:27:54.704Z,11.73
2024-04-09T23:30:22.784Z,11.71
2024-04-09T23:32:52.448Z,11.69
2024-04-09T23:35:21.755Z,11.67
2024-04-09T23:37:51.684Z,11.65
2024-04-09T23:40:20.028Z,11.63
2024-04-09T23:42:48.298Z,11.61
2024-04-09T23:45:16.680Z,11.59
2024-04-09T23:47:45.229Z,11.57
2024-04-09T23:50:13.830Z,11.55
2024-04-09T23:52:41.930Z,11.53
2024-04-09T23:55:10.012Z,11.50
2024-04-09T23:57:39.382Z,11.47
